createdAt,value
2023-03-28T00:00:13.356Z,29.13
2023-03-28T00:01:13.370Z,28.61
2023-03-28T00:02:13.335Z,31.94
2023-03-28T00:03:13.329Z,30.69
2023-03-28T00:04:13.415Z,31.63
2023-03-28T00:05:13.304Z,31.00
2023-03-28T00:06:13.330Z,31.32
2023-03-28T00:07:13.282Z,30.79
2023-03-28T00:08:13.339Z,30.38
2023-03-28T00:09:13.259Z,27.98
2023-03-28T00:10:13.251Z,30.58
2023-03-28T00:11:13.242Z,28.81
2023-03-28T00:12:13.242Z,29.03
2023-03-28T00:13:13.210Z,27.58
2023-03-28T00:14:13.202Z,28.20
2023-03-28T00:15:13.189Z,28.31
2023-03-28T00:16:13.388Z,27.79
2023-03-28T00:17:13.168Z,26.54
2023-03-28T00:18:13.161Z,27.17
2023-03-28T00:19:13.143Z,26.76
2023-03-28T00:20:13.172Z,25.41
2023-03-28T00:21:13.124Z,24.78
2023-03-28T00:22:13.109Z,23.43
2023-03-28T00:23:13.102Z,23.64
2023-03-28T00:24:13.088Z,23.54
2023-03-28T00:25:13.078Z,21.77
2023-03-28T00:26:13.078Z,20.51
2023-03-28T00:27:13.050Z,22.80
2023-03-28T00:28:13.036Z,21.55
2023-03-28T00:29:13.031Z,21.14
2023-03-28T00:30:13.015Z,21.14
2023-03-28T00:31:13.122Z,20.84
2023-03-28T00:32:13.013Z,19.17
2023-03-28T00:33:12.991Z,17.39
2023-03-28T00:34:12.971Z,17.39
2023-03-28T00:35:12.968Z,15.62
2023-03-28T00:36:12.973Z,18.01
2023-03-28T00:37:12.935Z,17.70
2023-03-28T00:38:12.921Z,17.49
2023-03-28T00:39:12.911Z,17.39
2023-03-28T00:40:12.901Z,19.78
2023-03-28T00:41:12.890Z,20.61
2023-03-28T00:42:12.877Z,22.18
2023-03-28T00:43:12.868Z,21.75
2023-03-28T00:44:12.854Z,22.08
2023-03-28T00:45:12.845Z,20.41
2023-03-28T00:46:13.009Z,20.72
2023-03-28T00:47:12.815Z,19.05
2023-03-28T00:48:15.383Z,17.07
2023-03-28T00:49:12.798Z,19.26
2023-03-28T00:50:12.790Z,20.81
2023-03-28T00:51:12.780Z,20.40
2023-03-28T00:52:12.784Z,21.13
2023-03-28T00:53:12.752Z,21.44
2023-03-28T00:54:12.738Z,21.23
2023-03-28T00:55:12.722Z,18.94
2023-03-28T00:56:12.713Z,21.03
2023-03-28T00:57:12.777Z,18.84
2023-03-28T00:58:12.690Z,19.57
2023-03-28T00:59:12.683Z,21.03
2023-03-28T01:00:12.665Z,21.23
2023-03-28T01:01:12.679Z,24.04
2023-03-28T01:02:12.670Z,25.40
2023-03-28T01:03:12.736Z,26.12
2023-03-28T01:04:12.619Z,22.79
2023-03-28T01:05:12.612Z,24.15
2023-03-28T01:06:12.624Z,24.25
2023-03-28T01:07:12.608Z,24.68
2023-03-28T01:08:12.808Z,22.60
2023-03-28T01:09:12.602Z,22.91
2023-03-28T01:10:12.559Z,23.32
2023-03-28T01:11:12.544Z,24.56
2023-03-28T01:12:12.522Z,22.58
2023-03-28T01:13:12.516Z,21.55
2023-03-28T01:14:12.500Z,23.32
2023-03-28T01:15:12.510Z,21.86
2023-03-28T01:16:12.541Z,21.44
2023-03-28T01:17:12.464Z,25.19
2023-03-28T01:18:12.455Z,25.60
2023-03-28T01:19:12.453Z,25.09
2023-03-28T01:20:12.428Z,26.02
2023-03-28T01:21:12.415Z,26.96
2023-03-28T01:22:12.410Z,26.86
2023-03-28T01:23:12.399Z,25.29
2023-03-28T01:24:12.681Z,23.63
2023-03-28T01:25:12.371Z,28.41
2023-03-28T01:26:12.363Z,27.17
2023-03-28T01:27:12.349Z,27.37
2023-03-28T01:28:12.345Z,28.00
2023-03-28T01:29:12.334Z,28.73
2023-03-28T01:30:12.330Z,27.69
2023-03-28T01:31:12.323Z,28.41
2023-03-28T01:32:12.312Z,25.92
2023-03-28T01:33:12.280Z,27.37
2023-03-28T01:34:12.271Z,26.65
2023-03-28T01:35:12.280Z,26.12
2023-03-28T01:36:12.247Z,25.92
2023-03-28T01:37:13.264Z,25.09
2023-03-28T01:38:12.228Z,26.96
2023-03-28T01:39:12.216Z,27.27
2023-03-28T01:40:12.301Z,26.54
2023-03-28T01:41:12.194Z,29.04
2023-03-28T01:42:12.180Z,29.26
2023-03-28T01:43:12.164Z,29.36
2023-03-28T01:44:12.158Z,28.33
2023-03-28T01:45:12.160Z,22.28
2023-03-28T01:46:12.171Z,18.95
2023-03-28T01:47:12.120Z,22.90
2023-03-28T01:48:12.118Z,21.44
2023-03-28T01:49:12.144Z,22.17
2023-03-28T01:50:12.087Z,22.17
2023-03-28T01:51:12.073Z,23.63
2023-03-28T01:52:12.063Z,23.63
2023-03-28T01:53:12.049Z,23.11
2023-03-28T01:54:12.189Z,24.15
2023-03-28T01:55:12.026Z,25.71
2023-03-28T01:56:12.037Z,26.96
2023-03-28T01:57:12.051Z,26.96
2023-03-28T01:58:11.997Z,27.28
2023-03-28T01:59:11.981Z,27.49
2023-03-28T02:00:12.060Z,25.20
2023-03-28T02:01:12.000Z,24.88
2023-03-28T02:02:12.016Z,22.80
2023-03-28T02:03:12.131Z,24.37
2023-03-28T02:04:19.904Z,25.10
2023-03-28T02:05:11.932Z,25.72
2023-03-28T02:06:11.901Z,26.14
2023-03-28T02:07:11.888Z,25.73
2023-03-28T02:08:11.882Z,25.21
2023-03-28T02:09:11.881Z,25.10
2023-03-28T02:10:11.856Z,23.54
2023-03-28T02:11:11.850Z,23.65
2023-03-28T02:12:11.916Z,21.46
2023-03-28T02:13:11.942Z,21.25
2023-03-28T02:14:11.811Z,22.19
2023-03-28T02:15:11.805Z,22.71
2023-03-28T02:16:11.807Z,18.85
2023-03-28T02:17:11.777Z,22.30
2023-03-28T02:18:11.768Z,20.94
2023-03-28T02:19:11.759Z,18.13
2023-03-28T02:20:11.811Z,22.39
2023-03-28T02:21:11.742Z,23.22
2023-03-28T02:22:11.724Z,24.69
2023-03-28T02:23:11.709Z,23.86
2023-03-28T02:24:11.699Z,22.08
2023-03-28T02:25:11.688Z,22.81
2023-03-28T02:26:11.678Z,22.71
2023-03-28T02:27:11.664Z,22.19
2023-03-28T02:28:11.680Z,23.02
2023-03-28T02:29:11.644Z,23.44
2023-03-28T02:30:11.632Z,23.02
2023-03-28T02:31:11.640Z,23.35
2023-03-28T02:32:11.616Z,19.17
2023-03-28T02:33:11.599Z,19.27
2023-03-28T02:34:11.588Z,19.69
2023-03-28T02:35:11.577Z,19.18
2023-03-28T02:36:11.567Z,15.11
2023-03-28T02:37:11.554Z,18.13
2023-03-28T02:38:11.547Z,18.54
2023-03-28T02:39:11.532Z,18.96
2023-03-28T02:40:11.523Z,18.44
2023-03-28T02:41:11.516Z,18.76
2023-03-28T02:42:11.498Z,20.32
2023-03-28T02:43:11.491Z,16.16
2023-03-28T02:44:11.503Z,17.19
2023-03-28T02:45:11.474Z,16.05
2023-03-28T02:46:11.489Z,15.53
2023-03-28T02:47:11.447Z,12.82
2023-03-28T02:48:11.437Z,12.60
2023-03-28T02:49:11.437Z,12.81
2023-03-28T02:50:11.426Z,13.34
2023-03-28T02:51:11.420Z,11.77
2023-03-28T02:52:11.395Z,12.19
2023-03-28T02:53:11.383Z,12.29
2023-03-28T02:54:11.374Z,11.46
2023-03-28T02:55:11.363Z,9.69
2023-03-28T02:56:11.353Z,9.17
2023-03-28T02:57:11.352Z,9.69
2023-03-28T02:58:11.348Z,10.42
2023-03-28T02:59:11.319Z,9.89
2023-03-28T03:00:11.334Z,9.69
2023-03-28T03:01:11.317Z,8.33
2023-03-28T03:02:11.287Z,8.01
2023-03-28T03:03:11.376Z,7.81
2023-03-28T03:04:11.322Z,7.29
2023-03-28T03:05:11.247Z,5.52
2023-03-28T03:06:11.239Z,7.81
2023-03-28T03:07:11.235Z,8.01
2023-03-28T03:08:11.216Z,8.54
2023-03-28T03:09:11.206Z,8.64
2023-03-28T03:10:11.208Z,8.44
2023-03-28T03:11:11.185Z,9.16
2023-03-28T03:12:11.169Z,7.91
2023-03-28T03:13:11.161Z,9.47
2023-03-28T03:14:11.146Z,10.41
2023-03-28T03:15:11.134Z,10.72
2023-03-28T03:16:11.191Z,12.29
2023-03-28T03:17:11.110Z,11.98
2023-03-28T03:18:11.122Z,12.29
2023-03-28T03:19:11.101Z,11.25
2023-03-28T03:20:11.081Z,11.04
2023-03-28T03:21:11.064Z,13.34
2023-03-28T03:22:11.055Z,11.56
2023-03-28T03:23:12.078Z,12.29
2023-03-28T03:24:11.031Z,14.27
2023-03-28T03:25:12.433Z,15.31
2023-03-28T03:26:11.018Z,14.28
2023-03-28T03:27:10.995Z,16.36
2023-03-28T03:28:10.984Z,15.94
2023-03-28T03:29:10.971Z,14.48
2023-03-28T03:30:10.962Z,14.90
2023-03-28T03:31:10.985Z,12.82
2023-03-28T03:32:10.972Z,14.48
2023-03-28T03:33:10.928Z,11.05
2023-03-28T03:34:10.917Z,14.48
2023-03-28T03:35:10.904Z,13.65
2023-03-28T03:36:10.895Z,15.12
2023-03-28T03:37:10.881Z,15.64
2023-03-28T03:38:10.872Z,17.10
2023-03-28T03:39:10.858Z,17.52
2023-03-28T03:40:10.849Z,12.10
2023-03-28T03:41:10.838Z,13.76
2023-03-28T03:42:10.831Z,12.72
2023-03-28T03:43:10.818Z,13.76
2023-03-28T03:44:10.808Z,14.81
2023-03-28T03:45:10.794Z,16.38
2023-03-28T03:46:10.841Z,14.92
2023-03-28T03:47:10.778Z,14.39
2023-03-28T03:48:10.839Z,12.20
2023-03-28T03:49:10.753Z,13.04
2023-03-28T03:50:10.744Z,11.79
2023-03-28T03:51:10.733Z,11.16
2023-03-28T03:52:10.720Z,12.62
2023-03-28T03:53:10.797Z,8.65
2023-03-28T03:54:10.698Z,11.27
2023-03-28T03:55:10.693Z,12.73
2023-03-28T03:56:10.682Z,10.53
2023-03-28T03:57:10.689Z,12.41
2023-03-28T03:58:10.655Z,11.79
2023-03-28T03:59:10.646Z,10.43
2023-03-28T04:00:10.637Z,11.47
2023-03-28T04:01:10.619Z,12.62
2023-03-28T04:02:10.663Z,13.04
2023-03-28T04:03:25.127Z,12.52
2023-03-28T04:04:11.729Z,9.70
2023-03-28T04:05:10.590Z,11.16
2023-03-28T04:06:10.571Z,10.95
2023-03-28T04:07:10.556Z,10.96
2023-03-28T04:08:10.546Z,10.43
2023-03-28T04:09:10.541Z,9.39
2023-03-28T04:10:10.526Z,10.02
2023-03-28T04:11:10.531Z,7.09
2023-03-28T04:12:10.504Z,8.24
2023-03-28T04:13:10.493Z,7.20
2023-03-28T04:14:10.481Z,8.14
2023-03-28T04:15:10.472Z,6.46
2023-03-28T04:16:10.516Z,6.57
2023-03-28T04:17:10.449Z,6.77
2023-03-28T04:18:10.458Z,7.09
2023-03-28T04:19:10.425Z,6.46
2023-03-28T04:20:10.440Z,6.98
2023-03-28T04:21:10.401Z,7.82
2023-03-28T04:22:10.393Z,7.71
2023-03-28T04:23:10.394Z,8.34
2023-03-28T04:24:10.371Z,5.52
2023-03-28T04:25:10.363Z,6.05
2023-03-28T04:26:10.348Z,6.36
2023-03-28T04:27:10.339Z,6.57
2023-03-28T04:28:10.336Z,7.51
2023-03-28T04:29:10.319Z,7.20
2023-03-28T04:30:10.310Z,4.59
2023-03-28T04:31:10.331Z,6.15
2023-03-28T04:32:10.287Z,7.09
2023-03-28T04:33:10.286Z,6.57
2023-03-28T04:34:10.272Z,7.71
2023-03-28T04:35:10.253Z,5.84
2023-03-28T04:36:10.323Z,6.26
2023-03-28T04:37:10.235Z,5.42
2023-03-28T04:38:10.233Z,5.32
2023-03-28T04:39:11.250Z,5.63
2023-03-28T04:40:10.201Z,4.69
2023-03-28T04:41:10.195Z,4.06
2023-03-28T04:42:10.256Z,4.27
2023-03-28T04:43:10.178Z,1.87
2023-03-28T04:44:10.165Z,3.02
2023-03-28T04:45:10.156Z,2.92
2023-03-28T04:46:10.167Z,2.81
2023-03-28T04:47:10.129Z,3.33
2023-03-28T04:48:10.167Z,3.12
2023-03-28T04:49:10.111Z,2.71
2023-03-28T04:50:10.125Z,2.08
2023-03-28T04:51:10.089Z,2.71
2023-03-28T04:52:10.116Z,0.52
2023-03-28T04:53:10.069Z,1.67
2023-03-28T04:54:10.055Z,1.25
2023-03-28T04:55:10.046Z,1.87
2023-03-28T04:56:10.034Z,1.67
2023-03-28T04:57:10.098Z,1.87
2023-03-28T04:58:10.008Z,0.62
2023-03-28T04:59:09.999Z,1.14
2023-03-28T05:00:10.031Z,0.73
2023-03-28T05:01:09.991Z,1.14
2023-03-28T05:02:09.988Z,0.93
2023-03-28T05:03:12.751Z,0.52
2023-03-28T05:04:09.936Z,0.00
2023-03-28T05:05:09.927Z,0.00
2023-03-28T05:06:09.918Z,0.31
2023-03-28T05:07:09.908Z,0.31
2023-03-28T05:08:09.915Z,0.00
2023-03-28T05:09:09.878Z,0.00
2023-03-28T05:10:11.203Z,0.00
2023-03-28T05:11:09.854Z,0.00
2023-03-28T05:12:09.842Z,0.00
2023-03-28T05:13:09.832Z,0.00
2023-03-28T05:14:09.817Z,0.10
2023-03-28T05:15:09.811Z,0.10
2023-03-28T05:16:09.833Z,0.21
2023-03-28T05:17:09.783Z,0.00
2023-03-28T05:18:09.833Z,0.00
2023-03-28T05:19:09.761Z,0.00
2023-03-28T05:20:09.758Z,0.00
2023-03-28T05:21:09.742Z,0.00
2023-03-28T05:22:09.728Z,0.21
2023-03-28T05:23:09.756Z,0.00
2023-03-28T05:24:09.731Z,0.00
2023-03-28T05:25:09.705Z,0.00
2023-03-28T05:26:09.682Z,0.10
2023-03-28T05:27:09.671Z,0.00
2023-03-28T05:28:09.663Z,0.00
2023-03-28T05:29:09.653Z,0.00
2023-03-28T05:30:09.692Z,0.00
2023-03-28T05:31:09.627Z,0.00
2023-03-28T05:32:09.697Z,0.00
2023-03-28T05:33:09.653Z,0.21
2023-03-28T05:34:09.592Z,0.00
2023-03-28T05:35:09.586Z,0.00
2023-03-28T05:36:09.638Z,0.00
2023-03-28T05:37:09.560Z,0.00
2023-03-28T05:38:09.551Z,0.00
2023-03-28T05:39:09.540Z,0.00
2023-03-28T05:40:09.555Z,0.00
2023-03-28T05:41:09.513Z,0.00
2023-03-28T05:42:09.501Z,0.00
2023-03-28T05:43:09.501Z,0.00
2023-03-28T05:44:09.483Z,0.00
2023-03-28T05:45:09.482Z,0.00
2023-03-28T05:46:09.499Z,0.00
2023-03-28T05:47:09.448Z,0.00
2023-03-28T05:48:09.498Z,0.00
2023-03-28T05:49:09.427Z,0.00
2023-03-28T05:50:09.425Z,0.00
2023-03-28T05:51:09.409Z,0.00
2023-03-28T05:52:09.392Z,0.00
2023-03-28T05:53:09.383Z,0.00
2023-03-28T05:54:09.374Z,0.00
2023-03-28T05:55:09.361Z,0.00
2023-03-28T05:56:09.380Z,0.00
2023-03-28T05:57:09.406Z,0.00
2023-03-28T05:58:09.324Z,0.00
2023-03-28T05:59:09.323Z,0.00
2023-03-28T06:00:09.304Z,0.00
2023-03-28T06:01:09.294Z,0.00
2023-03-28T06:02:09.279Z,0.00
2023-03-28T06:03:09.332Z,0.00
2023-03-28T06:04:09.289Z,0.00
2023-03-28T06:05:09.282Z,0.00
2023-03-28T06:06:09.262Z,0.00
2023-03-28T06:07:09.226Z,0.00
2023-03-28T06:08:09.212Z,0.00
2023-03-28T06:09:09.202Z,0.00
2023-03-28T06:10:09.275Z,0.00
2023-03-28T06:11:09.226Z,0.00
2023-03-28T06:12:09.200Z,0.00
2023-03-28T06:13:09.159Z,0.00
2023-03-28T06:14:09.143Z,0.00
2023-03-28T06:15:09.136Z,0.00
2023-03-28T06:16:09.122Z,0.00
2023-03-28T06:17:09.161Z,0.00
2023-03-28T06:18:09.133Z,0.00
2023-03-28T06:19:17.884Z,0.00
2023-03-28T06:20:10.235Z,0.00
2023-03-28T06:21:09.066Z,0.00
2023-03-28T06:22:09.068Z,0.00
2023-03-28T06:23:09.046Z,0.00
2023-03-28T06:24:09.045Z,0.00
2023-03-28T06:25:09.028Z,0.00
2023-03-28T06:26:09.016Z,0.00
2023-03-28T06:27:09.001Z,0.21
2023-03-28T06:28:09.017Z,0.62
2023-03-28T06:29:08.982Z,1.45
2023-03-28T06:30:08.975Z,1.97
2023-03-28T06:31:09.049Z,1.97
2023-03-28T06:32:08.946Z,1.87
2023-03-28T06:33:09.008Z,3.33
2023-03-28T06:34:08.929Z,3.53
2023-03-28T06:35:08.927Z,4.16
2023-03-28T06:36:08.918Z,3.74
2023-03-28T06:37:08.895Z,3.64
2023-03-28T06:38:08.946Z,3.43
2023-03-28T06:39:08.878Z,4.99
2023-03-28T06:40:08.861Z,4.68
2023-03-28T06:41:08.857Z,7.17
2023-03-28T06:42:08.848Z,7.68
2023-03-28T06:43:08.831Z,9.04
2023-03-28T06:44:08.837Z,11.84
2023-03-28T06:45:08.813Z,12.37
2023-03-28T06:46:08.926Z,12.88
2023-03-28T06:47:08.783Z,11.85
2023-03-28T06:48:08.884Z,10.91
2023-03-28T06:49:08.765Z,6.02
2023-03-28T06:50:08.755Z,5.08
2023-03-28T06:51:08.736Z,12.66
2023-03-28T06:52:08.724Z,13.49
2023-03-28T06:53:08.719Z,16.09
2023-03-28T06:54:08.707Z,18.58
2023-03-28T06:55:08.700Z,18.48
2023-03-28T06:56:08.684Z,20.46
2023-03-28T06:57:08.766Z,21.19
2023-03-28T06:58:08.658Z,22.22
2023-03-28T06:59:08.654Z,21.19
2023-03-28T07:00:08.667Z,20.88
2023-03-28T07:01:08.629Z,20.47
2023-03-28T07:02:08.639Z,21.09
2023-03-28T07:03:08.665Z,19.43
2023-03-28T07:04:08.643Z,20.88
2023-03-28T07:05:08.587Z,19.43
2023-03-28T07:06:08.583Z,19.52
2023-03-28T07:07:08.565Z,21.70
2023-03-28T07:08:08.556Z,22.64
2023-03-28T07:09:08.543Z,23.05
2023-03-28T07:10:08.534Z,25.56
2023-03-28T07:11:08.520Z,26.49
2023-03-28T07:12:08.511Z,25.66
2023-03-28T07:13:08.503Z,15.67
2023-03-28T07:14:08.487Z,22.28
2023-03-28T07:15:08.498Z,22.37
2023-03-28T07:16:08.525Z,28.23
2023-03-28T07:17:08.456Z,43.19
2023-03-28T07:18:08.498Z,73.54
2023-03-28T07:19:08.437Z,67.82
2023-03-28T07:20:08.436Z,68.72
2023-03-28T07:21:08.700Z,75.49
2023-03-28T07:22:08.397Z,69.95
2023-03-28T07:23:08.436Z,73.39
2023-03-28T07:24:08.382Z,72.64
2023-03-28T07:25:08.369Z,69.50
2023-03-28T07:26:08.354Z,73.05
2023-03-28T07:27:15.357Z,81.35
2023-03-28T07:28:08.334Z,90.43
2023-03-28T07:29:08.325Z,86.24
2023-03-28T07:30:08.316Z,86.41
2023-03-28T07:31:08.360Z,81.58
2023-03-28T07:32:08.315Z,89.73
2023-03-28T07:33:18.467Z,86.05
2023-03-28T07:34:09.345Z,89.42
2023-03-28T07:35:08.261Z,92.63
2023-03-28T07:36:08.287Z,99.60
2023-03-28T07:37:08.231Z,99.99
2023-03-28T07:38:08.231Z,99.99
2023-03-28T07:39:08.221Z,99.99
2023-03-28T07:40:08.203Z,99.99
2023-03-28T07:41:08.197Z,99.99
2023-03-28T07:42:08.176Z,99.99
2023-03-28T07:43:08.164Z,99.99
2023-03-28T07:44:08.162Z,99.99
2023-03-28T07:45:08.140Z,99.99
2023-03-28T07:46:08.197Z,99.99
2023-03-28T07:47:08.121Z,97.45
2023-03-28T07:48:08.226Z,94.40
2023-03-28T07:49:08.097Z,93.26
2023-03-28T07:50:08.092Z,96.77
2023-03-28T07:51:08.077Z,95.22
2023-03-28T07:52:08.072Z,92.40
2023-03-28T07:53:08.069Z,94.00
2023-03-28T07:54:08.041Z,96.66
2023-03-28T07:55:08.030Z,99.30
2023-03-28T07:56:08.019Z,99.99
2023-03-28T07:57:08.105Z,99.99
2023-03-28T07:58:07.996Z,99.99
2023-03-28T07:59:07.994Z,99.99
2023-03-28T08:00:07.986Z,99.99
2023-03-28T08:01:07.964Z,99.99
2023-03-28T08:02:07.950Z,99.99
2023-03-28T08:03:08.061Z,99.99
2023-03-28T08:04:07.969Z,99.99
2023-03-28T08:05:07.954Z,99.99
2023-03-28T08:06:16.915Z,99.99
2023-03-28T08:07:08.916Z,99.99
2023-03-28T08:08:07.904Z,99.99
2023-03-28T08:09:07.877Z,99.99
2023-03-28T08:10:07.860Z,99.99
2023-03-28T08:11:07.891Z,99.99
2023-03-28T08:12:07.846Z,99.99
2023-03-28T08:13:07.825Z,99.99
2023-03-28T08:14:07.812Z,99.99
2023-03-28T08:15:07.804Z,99.99
2023-03-28T08:16:07.855Z,99.99
2023-03-28T08:17:07.782Z,99.99
2023-03-28T08:18:07.881Z,99.99
2023-03-28T08:19:11.877Z,99.99
2023-03-28T08:20:07.776Z,99.99
2023-03-28T08:21:07.736Z,99.99
2023-03-28T08:22:07.750Z,99.99
2023-03-28T08:23:07.726Z,99.99
2023-03-28T08:24:07.840Z,99.99
2023-03-28T08:25:07.696Z,99.99
2023-03-28T08:26:07.683Z,99.99
2023-03-28T08:27:07.680Z,99.99
2023-03-28T08:28:07.654Z,99.99
2023-03-28T08:29:07.673Z,99.99
2023-03-28T08:30:07.637Z,99.99
2023-03-28T08:31:07.657Z,99.99
2023-03-28T08:32:07.622Z,99.99
2023-03-28T08:33:07.619Z,99.99
2023-03-28T08:34:07.600Z,99.99
2023-03-28T08:35:07.586Z,99.99
2023-03-28T08:36:07.644Z,99.99
2023-03-28T08:37:07.566Z,99.99
2023-03-28T08:38:10.450Z,99.99
2023-03-28T08:39:07.537Z,99.99
2023-03-28T08:40:07.543Z,99.99
2023-03-28T08:41:07.511Z,99.99
2023-03-28T08:42:07.502Z,99.99
2023-03-28T08:43:07.484Z,99.99
2023-03-28T08:44:07.475Z,99.99
2023-03-28T08:45:07.467Z,99.99
2023-03-28T08:46:07.490Z,99.99
2023-03-28T08:47:07.442Z,99.99
2023-03-28T08:48:07.491Z,99.99
2023-03-28T08:49:07.422Z,99.99
2023-03-28T08:50:07.409Z,99.99
2023-03-28T08:51:07.397Z,99.99
2023-03-28T08:52:07.417Z,99.99
2023-03-28T08:53:07.374Z,99.99
2023-03-28T08:54:07.397Z,99.99
2023-03-28T08:55:07.359Z,99.99
2023-03-28T08:56:07.341Z,99.99
2023-03-28T08:57:07.384Z,99.99
2023-03-28T08:58:07.327Z,99.99
2023-03-28T08:59:07.335Z,99.99
2023-03-28T09:00:07.297Z,99.99
2023-03-28T09:01:07.284Z,99.99
2023-03-28T09:02:08.238Z,99.99
2023-03-28T09:03:07.469Z,99.99
2023-03-28T09:04:07.347Z,99.99
2023-03-28T09:05:21.916Z,99.99
2023-03-28T09:06:08.271Z,99.99
2023-03-28T09:07:07.229Z,99.99
2023-03-28T09:08:07.249Z,99.99
2023-03-28T09:09:07.237Z,99.99
2023-03-28T09:10:07.227Z,99.99
2023-03-28T09:11:07.200Z,99.99
2023-03-28T09:12:07.197Z,99.99
2023-03-28T09:13:07.176Z,99.99
2023-03-28T09:14:07.148Z,99.99
2023-03-28T09:15:07.143Z,99.99
2023-03-28T09:16:07.196Z,99.99
2023-03-28T09:17:07.114Z,99.24
2023-03-28T09:18:07.179Z,99.99
2023-03-28T09:19:07.125Z,98.27
2023-03-28T09:20:07.080Z,95.32
2023-03-28T09:21:07.066Z,97.20
2023-03-28T09:22:15.220Z,99.29
2023-03-28T09:23:08.147Z,99.99
2023-03-28T09:24:07.063Z,96.20
2023-03-28T09:25:07.022Z,89.89
2023-03-28T09:26:07.015Z,89.10
2023-03-28T09:27:06.999Z,90.00
2023-03-28T09:28:06.986Z,91.20
2023-03-28T09:29:06.975Z,99.99
2023-03-28T09:30:06.979Z,94.08
2023-03-28T09:31:06.966Z,91.63
2023-03-28T09:32:06.992Z,94.85
2023-03-28T09:33:07.005Z,91.28
2023-03-28T09:34:06.933Z,90.48
2023-03-28T09:35:06.910Z,87.23
2023-03-28T09:36:06.923Z,86.37
2023-03-28T09:37:06.882Z,84.53
2023-03-28T09:38:06.880Z,87.75
2023-03-28T09:39:06.862Z,81.51
2023-03-28T09:40:06.893Z,82.32
2023-03-28T09:41:06.870Z,82.01
2023-03-28T09:42:06.832Z,82.73
2023-03-28T09:43:06.817Z,81.27
2023-03-28T09:44:06.812Z,83.04
2023-03-28T09:45:06.798Z,84.14
2023-03-28T09:46:06.836Z,83.18
2023-03-28T09:47:06.783Z,81.62
2023-03-28T09:48:06.853Z,82.54
2023-03-28T09:49:06.754Z,82.80
2023-03-28T09:50:12.869Z,82.15
2023-03-28T09:51:06.728Z,84.11
2023-03-28T09:52:06.715Z,80.72
2023-03-28T09:53:06.706Z,77.77
2023-03-28T09:54:06.718Z,76.52
2023-03-28T09:55:06.690Z,79.62
2023-03-28T09:56:06.714Z,81.24
2023-03-28T09:57:06.697Z,78.52
2023-03-28T09:58:06.743Z,77.87
2023-03-28T09:59:06.664Z,76.34
2023-03-28T10:00:06.631Z,77.13
2023-03-28T10:01:06.644Z,76.62
2023-03-28T10:02:06.609Z,78.43
2023-03-28T10:03:06.684Z,78.64
2023-03-28T10:04:06.625Z,78.63
2023-03-28T10:05:06.696Z,76.75
2023-03-28T10:06:06.560Z,76.61
2023-03-28T10:07:06.549Z,78.59
2023-03-28T10:08:06.541Z,79.13
2023-03-28T10:09:06.538Z,76.04
2023-03-28T10:10:06.517Z,73.91
2023-03-28T10:11:06.511Z,72.41
2023-03-28T10:12:06.525Z,71.87
2023-03-28T10:13:06.486Z,75.19
2023-03-28T10:14:06.471Z,72.68
2023-03-28T10:15:06.470Z,69.81
2023-03-28T10:16:06.523Z,66.80
2023-03-28T10:17:06.440Z,67.21
2023-03-28T10:18:06.448Z,66.30
2023-03-28T10:19:06.419Z,64.78
2023-03-28T10:20:06.403Z,60.55
2023-03-28T10:21:06.400Z,60.98
2023-03-28T10:22:06.438Z,61.72
2023-03-28T10:23:06.373Z,60.94
2023-03-28T10:24:06.360Z,61.04
2023-03-28T10:25:06.367Z,61.93
2023-03-28T10:26:06.508Z,61.18
2023-03-28T10:27:06.344Z,62.68
2023-03-28T10:28:06.385Z,61.91
2023-03-28T10:29:06.303Z,59.99
2023-03-28T10:30:06.291Z,60.10
2023-03-28T10:31:06.289Z,58.78
2023-03-28T10:32:06.312Z,56.84
2023-03-28T10:33:06.317Z,54.71
2023-03-28T10:34:06.265Z,57.24
2023-03-28T10:35:06.281Z,59.62
2023-03-28T10:36:06.354Z,61.60
2023-03-28T10:37:06.226Z,62.43
2023-03-28T10:38:06.206Z,60.52
2023-03-28T10:39:06.194Z,57.35
2023-03-28T10:40:06.252Z,60.06
2023-03-28T10:41:06.175Z,55.73
2023-03-28T10:42:06.159Z,55.02
2023-03-28T10:43:06.150Z,56.56
2023-03-28T10:44:06.167Z,52.16
2023-03-28T10:45:06.137Z,53.32
2023-03-28T10:46:06.145Z,59.03
2023-03-28T10:47:06.106Z,59.69
2023-03-28T10:48:06.134Z,58.33
2023-03-28T10:49:06.103Z,59.52
2023-03-28T10:50:06.082Z,60.65
2023-03-28T10:51:06.072Z,60.11
2023-03-28T10:52:06.060Z,57.37
2023-03-28T10:53:06.039Z,56.85
2023-03-28T10:54:06.046Z,56.34
2023-03-28T10:55:06.019Z,57.95
2023-03-28T10:56:06.024Z,61.07
2023-03-28T10:57:06.024Z,63.20
2023-03-28T10:58:05.985Z,60.47
2023-03-28T10:59:05.975Z,58.35
2023-03-28T11:00:05.995Z,56.70
2023-03-28T11:01:05.954Z,56.98
2023-03-28T11:02:06.001Z,56.90
2023-03-28T11:03:06.009Z,55.52
2023-03-28T11:04:05.955Z,56.61
2023-03-28T11:05:05.913Z,54.69
2023-03-28T11:06:09.490Z,52.13
2023-03-28T11:07:05.881Z,54.21
2023-03-28T11:08:05.870Z,57.81
2023-03-28T11:09:05.862Z,56.49
2023-03-28T11:10:05.869Z,56.21
2023-03-28T11:11:05.837Z,56.47
2023-03-28T11:12:05.868Z,58.36
2023-03-28T11:13:05.812Z,57.17
2023-03-28T11:14:05.827Z,59.17
2023-03-28T11:15:05.811Z,57.75
2023-03-28T11:16:05.851Z,58.67
2023-03-28T11:17:05.772Z,59.05
2023-03-28T11:18:05.782Z,58.20
2023-03-28T11:19:05.759Z,56.62
2023-03-28T11:20:05.742Z,55.12
2023-03-28T11:21:05.727Z,56.52
2023-03-28T11:22:05.719Z,57.77
2023-03-28T11:23:06.845Z,57.06
2023-03-28T11:24:05.695Z,57.90
2023-03-28T11:25:05.725Z,56.77
2023-03-28T11:26:05.672Z,55.86
2023-03-28T11:27:15.318Z,57.21
2023-03-28T11:28:05.647Z,57.42
2023-03-28T11:29:05.638Z,56.62
2023-03-28T11:30:05.640Z,59.19
2023-03-28T11:31:05.660Z,56.47
2023-03-28T11:32:05.629Z,55.99
2023-03-28T11:33:05.663Z,56.70
2023-03-28T11:34:05.582Z,59.05
2023-03-28T11:35:05.584Z,59.45
2023-03-28T11:36:05.659Z,58.26
2023-03-28T11:37:05.750Z,58.26
2023-03-28T11:38:05.621Z,55.63
2023-03-28T11:39:05.532Z,56.27
2023-03-28T11:40:06.690Z,56.78
2023-03-28T11:41:05.504Z,54.77
2023-03-28T11:42:05.493Z,57.83
2023-03-28T11:43:05.503Z,57.52
2023-03-28T11:44:05.471Z,59.46
2023-03-28T11:45:05.462Z,58.54
2023-03-28T11:46:05.467Z,59.16
2023-03-28T11:47:05.435Z,57.42
2023-03-28T11:48:05.551Z,57.32
2023-03-28T11:49:05.415Z,58.75
2023-03-28T11:50:05.412Z,57.32
2023-03-28T11:51:05.393Z,58.98
2023-03-28T11:52:05.381Z,59.26
2023-03-28T11:53:05.366Z,57.75
2023-03-28T11:54:05.357Z,57.04
2023-03-28T11:55:05.342Z,58.09
2023-03-28T11:56:05.334Z,57.07
2023-03-28T11:57:05.382Z,58.26
2023-03-28T11:58:05.321Z,58.87
2023-03-28T11:59:05.315Z,59.16
2023-03-28T12:00:05.285Z,57.37
2023-03-28T12:01:05.325Z,58.11
2023-03-28T12:02:05.341Z,59.44
2023-03-28T12:03:05.373Z,58.45
2023-03-28T12:04:05.366Z,60.69
2023-03-28T12:05:05.225Z,61.21
2023-03-28T12:06:05.647Z,59.44
2023-03-28T12:07:05.207Z,61.08
2023-03-28T12:08:05.229Z,59.72
2023-03-28T12:09:05.188Z,61.35
2023-03-28T12:10:05.173Z,61.32
2023-03-28T12:11:05.173Z,61.73
2023-03-28T12:12:05.155Z,60.69
2023-03-28T12:13:05.145Z,60.28
2023-03-28T12:14:11.491Z,59.87
2023-03-28T12:15:05.135Z,59.89
2023-03-28T12:16:05.114Z,59.28
2023-03-28T12:17:05.144Z,59.80
2023-03-28T12:18:05.117Z,60.03
2023-03-28T12:19:05.077Z,60.87
2023-03-28T12:20:05.108Z,59.85
2023-03-28T12:21:05.062Z,59.75
2023-03-28T12:22:05.072Z,60.36
2023-03-28T12:23:05.043Z,60.46
2023-03-28T12:24:05.023Z,62.27
2023-03-28T12:25:05.010Z,61.71
2023-03-28T12:26:05.013Z,62.90
2023-03-28T12:27:05.005Z,61.00
2023-03-28T12:28:04.999Z,60.75
2023-03-28T12:29:04.969Z,59.14
2023-03-28T12:30:04.976Z,64.00
2023-03-28T12:31:05.023Z,62.27
2023-03-28T12:32:04.936Z,58.26
2023-03-28T12:33:04.984Z,59.38
2023-03-28T12:34:04.912Z,60.53
2023-03-28T12:35:05.169Z,59.41
2023-03-28T12:36:04.940Z,59.78
2023-03-28T12:37:04.882Z,58.15
2023-03-28T12:38:04.868Z,61.49
2023-03-28T12:39:04.858Z,58.71
2023-03-28T12:40:04.842Z,56.47
2023-03-28T12:41:04.831Z,58.20
2023-03-28T12:42:04.830Z,56.65
2023-03-28T12:43:04.826Z,58.89
2023-03-28T12:44:04.832Z,58.65
2023-03-28T12:45:04.835Z,57.66
2023-03-28T12:46:04.804Z,54.44
2023-03-28T12:47:04.773Z,53.05
2023-03-28T12:48:04.836Z,51.81
2023-03-28T12:49:04.754Z,51.83
2023-03-28T12:50:04.733Z,50.32
2023-03-28T12:51:04.717Z,50.51
2023-03-28T12:52:04.735Z,50.10
2023-03-28T12:53:04.704Z,50.48
2023-03-28T12:54:04.685Z,52.25
2023-03-28T12:55:04.674Z,52.08
2023-03-28T12:56:04.671Z,53.75
2023-03-28T12:57:04.718Z,55.00
2023-03-28T12:58:04.638Z,55.43